Terminal Aerodrome Forecast
Issued by NWS Memphis, TN

Home | Current Version | Previous Version | Text Only | Print | Product List | Glossary On
Versions: 1 2 3 4 5 6 7 8 9 10 11 12 13 14 15 16 17 18 19 20 21 22 23 24 25 26 27
166
FTUS44 KMEG 221608 AAC
TAFMEM
TAF AMD
KMEM 221608Z 2216/2312 13010KT P6SM VCSH OVC011
     FM221700 15014G22KT P6SM VCSH BKN020 OVC050
     FM230000 15012G18KT P6SM VCSH BKN018 OVC035
     FM230200 17012KT P6SM VCSH BKN007 OVC010=

USA.gov is the U.S. government's official web portal to all federal, state and local government web resources and services.